sensor_id;sensor_type;location;lat;lon;timestamp;P1;durP1;ratioP1;P2;durP2;ratioP2
47894;SDS011;33653;52.302;8.134;2023-01-01T00:01:11;5.05;;;2.40;;
47894;SDS011;33653;52.302;8.134;2023-01-01T00:03:41;5.50;;;2.45;;
47894;SDS011;33653;52.302;8.134;2023-01-01T00:06:10;4.57;;;2.83;;
47894;SDS011;33653;52.302;8.134;2023-01-01T00:08:39;6.22;;;2.88;;
47894;SDS011;33653;52.302;8.134;2023-01-01T00:11:08;7.05;;;3.33;;
47894;SDS011;33653;52.302;8.134;2023-01-01T00:13:37;5.85;;;3.03;;
47894;SDS011;33653;52.302;8.134;2023-01-01T00:16:08;5.55;;;2.60;;
47894;SDS011;33653;52.302;8.134;2023-01-01T00:18:39;6.57;;;2.75;;
47894;SDS011;33653;52.302;8.134;2023-01-01T00:21:09;10.85;;;2.78;;
47894;SDS011;33653;52.302;8.134;2023-01-01T00:23:40;2.30;;;1.95;;
47894;SDS011;33653;52.302;8.134;2023-01-01T00:26:08;11.65;;;5.07;;
47894;SDS011;33653;52.302;8.134;2023-01-01T00:28:42;12.27;;;3.10;;
47894;SDS011;33653;52.302;8.134;2023-01-01T00:31:21;4.53;;;2.17;;
47894;SDS011;33653;52.302;8.134;2023-01-01T00:33:49;8.68;;;2.95;;
47894;SDS011;33653;52.302;8.134;2023-01-01T00:36:20;6.72;;;2.97;;
47894;SDS011;33653;52.302;8.134;2023-01-01T00:38:50;9.25;;;3.33;;
47894;SDS011;33653;52.302;8.134;2023-01-01T00:41:18;6.68;;;2.75;;
47894;SDS011;33653;52.302;8.134;2023-01-01T00:43:46;6.30;;;2.95;;
47894;SDS011;33653;52.302;8.134;2023-01-01T00:46:14;9.55;;;2.78;;
47894;SDS011;33653;52.302;8.134;2023-01-01T00:48:42;4.20;;;2.45;;
47894;SDS011;33653;52.302;8.134;2023-01-01T00:51:09;6.72;;;3.25;;
47894;SDS011;33653;52.302;8.134;2023-01-01T00:53:37;5.75;;;2.45;;
47894;SDS011;33653;52.302;8.134;2023-01-01T00:56:05;8.35;;;2.92;;
47894;SDS011;33653;52.302;8.134;2023-01-01T00:58:33;5.07;;;2.50;;
47894;SDS011;33653;52.302;8.134;2023-01-01T01:01:00;4.78;;;2.72;;
47894;SDS011;33653;52.302;8.134;2023-01-01T01:03:29;3.67;;;2.20;;
47894;SDS011;33653;52.302;8.134;2023-01-01T01:08:26;6.63;;;2.90;;
47894;SDS011;33653;52.302;8.134;2023-01-01T01:11:10;7.07;;;3.25;;
47894;SDS011;33653;52.302;8.134;2023-01-01T01:13:43;7.38;;;3.08;;
47894;SDS011;33653;52.302;8.134;2023-01-01T01:16:14;14.35;;;3.20;;
47894;SDS011;33653;52.302;8.134;2023-01-01T01:18:45;6.60;;;3.53;;
47894;SDS011;33653;52.302;8.134;2023-01-01T01:21:18;8.85;;;3.58;;
47894;SDS011;33653;52.302;8.134;2023-01-01T01:23:48;6.47;;;3.45;;
47894;SDS011;33653;52.302;8.134;2023-01-01T01:26:18;7.40;;;4.28;;
47894;SDS011;33653;52.302;8.134;2023-01-01T01:28:51;6.35;;;4.20;;
47894;SDS011;33653;52.302;8.134;2023-01-01T01:31:20;6.85;;;3.55;;
47894;SDS011;33653;52.302;8.134;2023-01-01T01:33:49;12.45;;;3.42;;
47894;SDS011;33653;52.302;8.134;2023-01-01T01:36:17;7.28;;;4.20;;
47894;SDS011;33653;52.302;8.134;2023-01-01T01:38:45;8.95;;;4.25;;
47894;SDS011;33653;52.302;8.134;2023-01-01T01:41:13;10.65;;;4.13;;
47894;SDS011;33653;52.302;8.134;2023-01-01T01:43:58;7.65;;;3.53;;
47894;SDS011;33653;52.302;8.134;2023-01-01T01:49:15;11.98;;;4.32;;
47894;SDS011;33653;52.302;8.134;2023-01-01T01:51:55;9.20;;;3.45;;
47894;SDS011;33653;52.302;8.134;2023-01-01T01:54:23;9.32;;;3.70;;
47894;SDS011;33653;52.302;8.134;2023-01-01T01:56:54;6.03;;;3.97;;
47894;SDS011;33653;52.302;8.134;2023-01-01T01:59:31;7.97;;;3.53;;
47894;SDS011;33653;52.302;8.134;2023-01-01T02:02:04;6.88;;;4.05;;
47894;SDS011;33653;52.302;8.134;2023-01-01T02:04:45;10.05;;;4.43;;
47894;SDS011;33653;52.302;8.134;2023-01-01T02:07:13;11.90;;;4.22;;
47894;SDS011;33653;52.302;8.134;2023-01-01T02:09:41;6.28;;;3.33;;
47894;SDS011;33653;52.302;8.134;2023-01-01T02:12:09;11.05;;;3.92;;
47894;SDS011;33653;52.302;8.134;2023-01-01T02:14:37;8.52;;;2.38;;
47894;SDS011;33653;52.302;8.134;2023-01-01T02:17:08;10.65;;;4.38;;
47894;SDS011;33653;52.302;8.134;2023-01-01T02:20:11;9.65;;;4.07;;
47894;SDS011;33653;52.302;8.134;2023-01-01T02:29:07;7.35;;;3.13;;
47894;SDS011;33653;52.302;8.134;2023-01-01T02:31:48;5.18;;;2.95;;
47894;SDS011;33653;52.302;8.134;2023-01-01T02:34:27;6.30;;;3.05;;
47894;SDS011;33653;52.302;8.134;2023-01-01T02:37:02;9.07;;;3.42;;
47894;SDS011;33653;52.302;8.134;2023-01-01T02:39:34;5.57;;;2.60;;
47894;SDS011;33653;52.302;8.134;2023-01-01T02:42:08;3.08;;;2.50;;
47894;SDS011;33653;52.302;8.134;2023-01-01T02:44:37;8.32;;;3.45;;
47894;SDS011;33653;52.302;8.134;2023-01-01T02:47:09;6.20;;;3.08;;
47894;SDS011;33653;52.302;8.134;2023-01-01T02:49:44;5.18;;;2.97;;
47894;SDS011;33653;52.302;8.134;2023-01-01T03:10:02;10.48;;;3.15;;
47894;SDS011;33653;52.302;8.134;2023-01-01T03:12:46;7.63;;;3.50;;
47894;SDS011;33653;52.302;8.134;2023-01-01T03:15:28;9.88;;;3.35;;
47894;SDS011;33653;52.302;8.134;2023-01-01T03:18:10;10.07;;;3.75;;
47894;SDS011;33653;52.302;8.134;2023-01-01T03:20:48;5.78;;;3.50;;
47894;SDS011;33653;52.302;8.134;2023-01-01T03:23:24;6.80;;;3.78;;
47894;SDS011;33653;52.302;8.134;2023-01-01T03:25:58;4.93;;;2.60;;
47894;SDS011;33653;52.302;8.134;2023-01-01T03:28:33;8.02;;;3.08;;
47894;SDS011;33653;52.302;8.134;2023-01-01T03:31:10;6.93;;;3.55;;
47894;SDS011;33653;52.302;8.134;2023-01-01T03:33:45;4.95;;;2.67;;
47894;SDS011;33653;52.302;8.134;2023-01-01T03:36:20;11.45;;;3.08;;
47894;SDS011;33653;52.302;8.134;2023-01-01T03:38:58;4.80;;;2.50;;
47894;SDS011;33653;52.302;8.134;2023-01-01T03:41:46;9.13;;;2.38;;
47894;SDS011;33653;52.302;8.134;2023-01-01T03:44:25;4.93;;;2.58;;
47894;SDS011;33653;52.302;8.134;2023-01-01T03:46:58;5.20;;;2.80;;
47894;SDS011;33653;52.302;8.134;2023-01-01T03:49:26;5.88;;;2.88;;
47894;SDS011;33653;52.302;8.134;2023-01-01T03:54:51;9.48;;;2.78;;
47894;SDS011;33653;52.302;8.134;2023-01-01T03:57:56;7.22;;;3.22;;
47894;SDS011;33653;52.302;8.134;2023-01-01T04:00:34;6.88;;;2.38;;
47894;SDS011;33653;52.302;8.134;2023-01-01T04:03:18;7.68;;;3.08;;
47894;SDS011;33653;52.302;8.134;2023-01-01T04:05:52;3.78;;;2.22;;
47894;SDS011;33653;52.302;8.134;2023-01-01T04:08:20;4.88;;;2.83;;
47894;SDS011;33653;52.302;8.134;2023-01-01T04:10:50;3.78;;;2.55;;
47894;SDS011;33653;52.302;8.134;2023-01-01T04:13:21;4.90;;;2.58;;
47894;SDS011;33653;52.302;8.134;2023-01-01T04:15:50;3.97;;;2.33;;
47894;SDS011;33653;52.302;8.134;2023-01-01T04:18:18;4.82;;;2.45;;
47894;SDS011;33653;52.302;8.134;2023-01-01T04:20:45;4.35;;;2.15;;
47894;SDS011;33653;52.302;8.134;2023-01-01T04:23:13;8.32;;;2.22;;
47894;SDS011;33653;52.302;8.134;2023-01-01T04:25:40;2.55;;;1.85;;
47894;SDS011;33653;52.302;8.134;2023-01-01T04:28:08;6.38;;;2.78;;
47894;SDS011;33653;52.302;8.134;2023-01-01T04:30:36;4.72;;;2.53;;
47894;SDS011;33653;52.302;8.134;2023-01-01T04:33:03;5.95;;;2.42;;
47894;SDS011;33653;52.302;8.134;2023-01-01T04:35:30;5.10;;;2.15;;
47894;SDS011;33653;52.302;8.134;2023-01-01T04:37:58;7.05;;;2.40;;
47894;SDS011;33653;52.302;8.134;2023-01-01T04:40:28;5.57;;;2.47;;
47894;SDS011;33653;52.302;8.134;2023-01-01T04:42:56;7.60;;;2.47;;
47894;SDS011;33653;52.302;8.134;2023-01-01T04:45:23;4.75;;;1.95;;
47894;SDS011;33653;52.302;8.134;2023-01-01T04:47:51;4.63;;;2.08;;
47894;SDS011;33653;52.302;8.134;2023-01-01T04:50:19;2.42;;;1.70;;
47894;SDS011;33653;52.302;8.134;2023-01-01T04:52:46;3.25;;;1.98;;
47894;SDS011;33653;52.302;8.134;2023-01-01T04:55:17;5.75;;;1.83;;
47894;SDS011;33653;52.302;8.134;2023-01-01T04:57:46;8.57;;;2.40;;
47894;SDS011;33653;52.302;8.134;2023-01-01T05:00:13;7.28;;;1.98;;
47894;SDS011;33653;52.302;8.134;2023-01-01T05:02:41;6.43;;;1.70;;
47894;SDS011;33653;52.302;8.134;2023-01-01T05:05:09;2.83;;;1.45;;
47894;SDS011;33653;52.302;8.134;2023-01-01T05:07:37;4.18;;;1.83;;
47894;SDS011;33653;52.302;8.134;2023-01-01T05:10:04;2.08;;;1.40;;
47894;SDS011;33653;52.302;8.134;2023-01-01T05:12:32;3.22;;;1.95;;
47894;SDS011;33653;52.302;8.134;2023-01-01T05:15:00;3.08;;;1.60;;
47894;SDS011;33653;52.302;8.134;2023-01-01T05:17:28;2.95;;;1.55;;
47894;SDS011;33653;52.302;8.134;2023-01-01T05:19:55;7.13;;;1.88;;
47894;SDS011;33653;52.302;8.134;2023-01-01T05:22:23;2.47;;;1.55;;
47894;SDS011;33653;52.302;8.134;2023-01-01T05:24:51;4.13;;;1.73;;
47894;SDS011;33653;52.302;8.134;2023-01-01T05:27:19;3.45;;;1.35;;
47894;SDS011;33653;52.302;8.134;2023-01-01T05:29:46;1.85;;;1.45;;
47894;SDS011;33653;52.302;8.134;2023-01-01T05:32:14;2.28;;;1.42;;
47894;SDS011;33653;52.302;8.134;2023-01-01T05:34:40;2.17;;;1.40;;
47894;SDS011;33653;52.302;8.134;2023-01-01T05:37:08;1.55;;;1.17;;
47894;SDS011;33653;52.302;8.134;2023-01-01T05:39:35;3.25;;;1.45;;
47894;SDS011;33653;52.302;8.134;2023-01-01T05:42:03;2.45;;;1.65;;
47894;SDS011;33653;52.302;8.134;2023-01-01T05:44:31;2.13;;;1.20;;
47894;SDS011;33653;52.302;8.134;2023-01-01T05:46:58;4.35;;;1.30;;
47894;SDS011;33653;52.302;8.134;2023-01-01T05:49:26;1.25;;;1.00;;
47894;SDS011;33653;52.302;8.134;2023-01-01T05:51:54;3.10;;;1.48;;
47894;SDS011;33653;52.302;8.134;2023-01-01T05:54:21;2.63;;;1.27;;
47894;SDS011;33653;52.302;8.134;2023-01-01T05:56:49;2.90;;;1.15;;
47894;SDS011;33653;52.302;8.134;2023-01-01T05:59:17;5.25;;;1.67;;
47894;SDS011;33653;52.302;8.134;2023-01-01T06:01:44;3.28;;;1.52;;
47894;SDS011;33653;52.302;8.134;2023-01-01T06:04:12;6.20;;;1.63;;
47894;SDS011;33653;52.302;8.134;2023-01-01T06:06:40;3.40;;;1.10;;
47894;SDS011;33653;52.302;8.134;2023-01-01T06:09:08;1.95;;;1.17;;
47894;SDS011;33653;52.302;8.134;2023-01-01T06:11:37;3.13;;;1.00;;
47894;SDS011;33653;52.302;8.134;2023-01-01T06:14:05;1.60;;;1.02;;
47894;SDS011;33653;52.302;8.134;2023-01-01T06:16:32;2.47;;;1.30;;
47894;SDS011;33653;52.302;8.134;2023-01-01T06:19:00;3.33;;;1.27;;
47894;SDS011;33653;52.302;8.134;2023-01-01T06:21:28;2.25;;;1.40;;
47894;SDS011;33653;52.302;8.134;2023-01-01T06:23:57;4.13;;;1.20;;
47894;SDS011;33653;52.302;8.134;2023-01-01T06:26:28;1.65;;;1.48;;
47894;SDS011;33653;52.302;8.134;2023-01-01T06:28:59;1.02;;;0.93;;
47894;SDS011;33653;52.302;8.134;2023-01-01T06:31:29;1.92;;;1.17;;
47894;SDS011;33653;52.302;8.134;2023-01-01T06:34:04;5.13;;;1.38;;
47894;SDS011;33653;52.302;8.134;2023-01-01T06:36:32;3.42;;;1.25;;
47894;SDS011;33653;52.302;8.134;2023-01-01T06:38:59;2.60;;;1.17;;
47894;SDS011;33653;52.302;8.134;2023-01-01T06:41:29;4.15;;;1.40;;
47894;SDS011;33653;52.302;8.134;2023-01-01T06:43:57;4.68;;;1.17;;
47894;SDS011;33653;52.302;8.134;2023-01-01T06:46:28;1.52;;;0.90;;
47894;SDS011;33653;52.302;8.134;2023-01-01T06:49:05;6.85;;;1.48;;
47894;SDS011;33653;52.302;8.134;2023-01-01T06:51:37;3.17;;;1.10;;
47894;SDS011;33653;52.302;8.134;2023-01-01T06:54:07;1.30;;;1.20;;
47894;SDS011;33653;52.302;8.134;2023-01-01T06:56:35;2.25;;;1.15;;
47894;SDS011;33653;52.302;8.134;2023-01-01T06:59:04;3.70;;;1.20;;
47894;SDS011;33653;52.302;8.134;2023-01-01T07:01:33;4.53;;;1.17;;
47894;SDS011;33653;52.302;8.134;2023-01-01T07:04:04;1.87;;;1.03;;
47894;SDS011;33653;52.302;8.134;2023-01-01T07:06:35;8.95;;;1.70;;
47894;SDS011;33653;52.302;8.134;2023-01-01T07:09:04;3.05;;;1.42;;
47894;SDS011;33653;52.302;8.134;2023-01-01T07:11:33;2.90;;;1.02;;
47894;SDS011;33653;52.302;8.134;2023-01-01T07:14:02;1.80;;;1.05;;
47894;SDS011;33653;52.302;8.134;2023-01-01T07:16:30;4.40;;;1.58;;
47894;SDS011;33653;52.302;8.134;2023-01-01T07:18:58;5.53;;;1.67;;
47894;SDS011;33653;52.302;8.134;2023-01-01T07:21:48;2.75;;;1.25;;
47894;SDS011;33653;52.302;8.134;2023-01-01T07:24:20;3.38;;;1.08;;
47894;SDS011;33653;52.302;8.134;2023-01-01T07:26:49;4.28;;;0.93;;
47894;SDS011;33653;52.302;8.134;2023-01-01T07:29:16;3.80;;;1.33;;
47894;SDS011;33653;52.302;8.134;2023-01-01T07:31:45;3.08;;;1.30;;
47894;SDS011;33653;52.302;8.134;2023-01-01T07:34:14;3.10;;;1.75;;
47894;SDS011;33653;52.302;8.134;2023-01-01T07:36:45;2.20;;;1.23;;
47894;SDS011;33653;52.302;8.134;2023-01-01T07:39:13;2.55;;;1.15;;
47894;SDS011;33653;52.302;8.134;2023-01-01T07:41:40;3.25;;;1.63;;
47894;SDS011;33653;52.302;8.134;2023-01-01T07:44:08;1.67;;;1.10;;
47894;SDS011;33653;52.302;8.134;2023-01-01T07:46:35;1.55;;;1.45;;
47894;SDS011;33653;52.302;8.134;2023-01-01T07:49:03;6.20;;;1.92;;
47894;SDS011;33653;52.302;8.134;2023-01-01T07:51:31;4.85;;;1.55;;
47894;SDS011;33653;52.302;8.134;2023-01-01T07:53:59;2.05;;;1.17;;
47894;SDS011;33653;52.302;8.134;2023-01-01T07:56:33;4.18;;;1.45;;
47894;SDS011;33653;52.302;8.134;2023-01-01T07:59:02;2.92;;;1.50;;
47894;SDS011;33653;52.302;8.134;2023-01-01T08:01:30;4.28;;;1.40;;
47894;SDS011;33653;52.302;8.134;2023-01-01T08:04:02;2.47;;;1.40;;
47894;SDS011;33653;52.302;8.134;2023-01-01T08:06:30;4.47;;;1.25;;
47894;SDS011;33653;52.302;8.134;2023-01-01T08:08:58;2.17;;;1.60;;
47894;SDS011;33653;52.302;8.134;2023-01-01T08:11:27;3.38;;;1.63;;
47894;SDS011;33653;52.302;8.134;2023-01-01T08:13:55;3.33;;;1.30;;
47894;SDS011;33653;52.302;8.134;2023-01-01T08:16:23;2.75;;;1.45;;
47894;SDS011;33653;52.302;8.134;2023-01-01T08:18:51;3.10;;;1.33;;
47894;SDS011;33653;52.302;8.134;2023-01-01T08:21:18;3.08;;;1.58;;
47894;SDS011;33653;52.302;8.134;2023-01-01T08:23:46;3.78;;;1.58;;
47894;SDS011;33653;52.302;8.134;2023-01-01T08:26:14;3.28;;;1.60;;
47894;SDS011;33653;52.302;8.134;2023-01-01T08:28:43;3.65;;;1.50;;
47894;SDS011;33653;52.302;8.134;2023-01-01T08:31:11;1.90;;;1.50;;
47894;SDS011;33653;52.302;8.134;2023-01-01T08:33:39;1.15;;;1.05;;
47894;SDS011;33653;52.302;8.134;2023-01-01T08:36:08;3.10;;;1.40;;
47894;SDS011;33653;52.302;8.134;2023-01-01T08:38:43;2.10;;;1.23;;
47894;SDS011;33653;52.302;8.134;2023-01-01T08:41:11;2.10;;;1.00;;
47894;SDS011;33653;52.302;8.134;2023-01-01T08:49:13;1.27;;;1.00;;
47894;SDS011;33653;52.302;8.134;2023-01-01T08:51:40;2.67;;;0.88;;
47894;SDS011;33653;52.302;8.134;2023-01-01T08:54:08;1.77;;;0.80;;
47894;SDS011;33653;52.302;8.134;2023-01-01T08:56:36;0.80;;;0.80;;
47894;SDS011;33653;52.302;8.134;2023-01-01T08:59:04;1.20;;;1.08;;
47894;SDS011;33653;52.302;8.134;2023-01-01T09:01:32;1.33;;;1.23;;
47894;SDS011;33653;52.302;8.134;2023-01-01T09:04:00;2.65;;;0.90;;
47894;SDS011;33653;52.302;8.134;2023-01-01T09:06:28;1.35;;;1.25;;
47894;SDS011;33653;52.302;8.134;2023-01-01T09:08:56;1.33;;;1.13;;
47894;SDS011;33653;52.302;8.134;2023-01-01T09:11:25;1.92;;;1.05;;
47894;SDS011;33653;52.302;8.134;2023-01-01T09:13:55;1.30;;;1.17;;
47894;SDS011;33653;52.302;8.134;2023-01-01T09:16:23;2.67;;;1.15;;
47894;SDS011;33653;52.302;8.134;2023-01-01T09:18:51;4.78;;;1.33;;
47894;SDS011;33653;52.302;8.134;2023-01-01T09:21:19;2.65;;;1.10;;
47894;SDS011;33653;52.302;8.134;2023-01-01T09:23:47;3.60;;;1.13;;
47894;SDS011;33653;52.302;8.134;2023-01-01T09:26:15;2.67;;;1.35;;
47894;SDS011;33653;52.302;8.134;2023-01-01T09:28:43;4.72;;;1.50;;
47894;SDS011;33653;52.302;8.134;2023-01-01T09:31:11;1.42;;;1.02;;
47894;SDS011;33653;52.302;8.134;2023-01-01T09:33:39;1.58;;;1.30;;
47894;SDS011;33653;52.302;8.134;2023-01-01T09:36:11;8.18;;;1.60;;
47894;SDS011;33653;52.302;8.134;2023-01-01T09:38:54;2.38;;;1.27;;
47894;SDS011;33653;52.302;8.134;2023-01-01T09:44:38;2.75;;;1.23;;
47894;SDS011;33653;52.302;8.134;2023-01-01T09:47:23;1.63;;;1.35;;
47894;SDS011;33653;52.302;8.134;2023-01-01T09:50:00;2.28;;;1.40;;
47894;SDS011;33653;52.302;8.134;2023-01-01T09:55:25;2.40;;;1.90;;
47894;SDS011;33653;52.302;8.134;2023-01-01T09:58:18;3.35;;;1.52;;
47894;SDS011;33653;52.302;8.134;2023-01-01T10:00:52;6.68;;;1.80;;
47894;SDS011;33653;52.302;8.134;2023-01-01T10:10:38;3.85;;;1.80;;
47894;SDS011;33653;52.302;8.134;2023-01-01T10:16:27;1.95;;;1.30;;
47894;SDS011;33653;52.302;8.134;2023-01-01T10:21:51;6.25;;;1.50;;
47894;SDS011;33653;52.302;8.134;2023-01-01T10:30:26;4.25;;;1.77;;
47894;SDS011;33653;52.302;8.134;2023-01-01T10:36:06;6.63;;;1.90;;
47894;SDS011;33653;52.302;8.134;2023-01-01T10:38:41;3.10;;;1.42;;
47894;SDS011;33653;52.302;8.134;2023-01-01T10:41:09;5.38;;;1.60;;
47894;SDS011;33653;52.302;8.134;2023-01-01T10:46:40;4.80;;;1.77;;
47894;SDS011;33653;52.302;8.134;2023-01-01T10:49:15;3.92;;;1.95;;
47894;SDS011;33653;52.302;8.134;2023-01-01T11:15:04;3.53;;;1.40;;
47894;SDS011;33653;52.302;8.134;2023-01-01T11:17:35;1.63;;;1.52;;
47894;SDS011;33653;52.302;8.134;2023-01-01T11:20:18;6.88;;;1.25;;
47894;SDS011;33653;52.302;8.134;2023-01-01T11:32:04;1.65;;;1.00;;
47894;SDS011;33653;52.302;8.134;2023-01-01T11:34:37;3.95;;;1.33;;
47894;SDS011;33653;52.302;8.134;2023-01-01T11:37:25;1.77;;;1.35;;
47894;SDS011;33653;52.302;8.134;2023-01-01T11:40:04;2.03;;;1.17;;
47894;SDS011;33653;52.302;8.134;2023-01-01T11:45:51;2.20;;;1.35;;
47894;SDS011;33653;52.302;8.134;2023-01-01T11:48:31;2.33;;;1.15;;
47894;SDS011;33653;52.302;8.134;2023-01-01T11:51:01;3.88;;;1.27;;
47894;SDS011;33653;52.302;8.134;2023-01-01T11:53:38;1.35;;;1.25;;
47894;SDS011;33653;52.302;8.134;2023-01-01T11:59:12;7.47;;;1.58;;
47894;SDS011;33653;52.302;8.134;2023-01-01T12:05:55;4.28;;;1.30;;
47894;SDS011;33653;52.302;8.134;2023-01-01T12:20:48;4.45;;;1.90;;
47894;SDS011;33653;52.302;8.134;2023-01-01T12:23:43;2.30;;;1.45;;
47894;SDS011;33653;52.302;8.134;2023-01-01T12:26:19;1.88;;;1.48;;
47894;SDS011;33653;52.302;8.134;2023-01-01T12:29:25;2.38;;;1.13;;
47894;SDS011;33653;52.302;8.134;2023-01-01T12:34:59;4.55;;;1.35;;
47894;SDS011;33653;52.302;8.134;2023-01-01T12:43:09;5.35;;;1.90;;
47894;SDS011;33653;52.302;8.134;2023-01-01T12:46:11;5.97;;;1.77;;
47894;SDS011;33653;52.302;8.134;2023-01-01T12:57:42;2.38;;;1.58;;
47894;SDS011;33653;52.302;8.134;2023-01-01T13:00:37;2.17;;;1.65;;
47894;SDS011;33653;52.302;8.134;2023-01-01T13:03:20;3.33;;;2.47;;
47894;SDS011;33653;52.302;8.134;2023-01-01T13:05:55;4.10;;;2.20;;
47894;SDS011;33653;52.302;8.134;2023-01-01T13:08:24;5.32;;;2.25;;
47894;SDS011;33653;52.302;8.134;2023-01-01T13:10:52;5.25;;;2.40;;
47894;SDS011;33653;52.302;8.134;2023-01-01T13:13:23;4.32;;;2.05;;
47894;SDS011;33653;52.302;8.134;2023-01-01T13:15:53;4.25;;;2.13;;
47894;SDS011;33653;52.302;8.134;2023-01-01T13:18:26;4.32;;;2.13;;
47894;SDS011;33653;52.302;8.134;2023-01-01T13:20:59;4.30;;;2.10;;
47894;SDS011;33653;52.302;8.134;2023-01-01T13:23:48;3.75;;;1.92;;
47894;SDS011;33653;52.302;8.134;2023-01-01T13:40:03;4.85;;;2.30;;
47894;SDS011;33653;52.302;8.134;2023-01-01T13:48:44;4.80;;;1.98;;
47894;SDS011;33653;52.302;8.134;2023-01-01T13:51:55;3.47;;;1.98;;
47894;SDS011;33653;52.302;8.134;2023-01-01T13:58:06;6.75;;;2.33;;
47894;SDS011;33653;52.302;8.134;2023-01-01T14:03:49;3.95;;;2.28;;
47894;SDS011;33653;52.302;8.134;2023-01-01T14:11:50;8.00;;;2.35;;
47894;SDS011;33653;52.302;8.134;2023-01-01T14:14:21;7.57;;;1.73;;
47894;SDS011;33653;52.302;8.134;2023-01-01T14:16:55;5.57;;;2.03;;
47894;SDS011;33653;52.302;8.134;2023-01-01T14:19:26;5.28;;;2.08;;
47894;SDS011;33653;52.302;8.134;2023-01-01T14:21:55;3.10;;;1.95;;
47894;SDS011;33653;52.302;8.134;2023-01-01T14:24:23;8.05;;;2.10;;
47894;SDS011;33653;52.302;8.134;2023-01-01T14:26:53;2.83;;;1.73;;
47894;SDS011;33653;52.302;8.134;2023-01-01T14:29:28;8.10;;;2.33;;
47894;SDS011;33653;52.302;8.134;2023-01-01T14:31:58;6.03;;;2.22;;
47894;SDS011;33653;52.302;8.134;2023-01-01T14:34:38;6.40;;;2.10;;
47894;SDS011;33653;52.302;8.134;2023-01-01T14:37:17;3.00;;;2.10;;
47894;SDS011;33653;52.302;8.134;2023-01-01T14:40:04;5.32;;;2.10;;
47894;SDS011;33653;52.302;8.134;2023-01-01T14:42:35;4.68;;;2.00;;
47894;SDS011;33653;52.302;8.134;2023-01-01T14:45:03;4.00;;;1.92;;
47894;SDS011;33653;52.302;8.134;2023-01-01T14:47:32;4.88;;;1.75;;
47894;SDS011;33653;52.302;8.134;2023-01-01T14:50:04;11.70;;;2.33;;
47894;SDS011;33653;52.302;8.134;2023-01-01T14:52:46;3.60;;;2.22;;
47894;SDS011;33653;52.302;8.134;2023-01-01T14:55:24;3.70;;;2.53;;
47894;SDS011;33653;52.302;8.134;2023-01-01T14:57:55;7.03;;;2.43;;
47894;SDS011;33653;52.302;8.134;2023-01-01T15:00:27;4.65;;;2.35;;
47894;SDS011;33653;52.302;8.134;2023-01-01T15:03:16;4.60;;;2.00;;
47894;SDS011;33653;52.302;8.134;2023-01-01T15:06:00;5.47;;;1.80;;
47894;SDS011;33653;52.302;8.134;2023-01-01T15:08:29;4.10;;;1.65;;
47894;SDS011;33653;52.302;8.134;2023-01-01T15:10:57;10.52;;;2.22;;
47894;SDS011;33653;52.302;8.134;2023-01-01T15:13:26;4.18;;;2.00;;
47894;SDS011;33653;52.302;8.134;2023-01-01T15:15:54;5.45;;;2.00;;
47894;SDS011;33653;52.302;8.134;2023-01-01T15:18:45;4.40;;;1.95;;
47894;SDS011;33653;52.302;8.134;2023-01-01T15:21:32;6.85;;;1.77;;
47894;SDS011;33653;52.302;8.134;2023-01-01T15:24:04;5.07;;;1.90;;
47894;SDS011;33653;52.302;8.134;2023-01-01T15:26:41;2.78;;;1.95;;
47894;SDS011;33653;52.302;8.134;2023-01-01T15:29:28;2.60;;;1.70;;
47894;SDS011;33653;52.302;8.134;2023-01-01T15:32:01;3.22;;;1.80;;
47894;SDS011;33653;52.302;8.134;2023-01-01T15:34:31;4.72;;;1.75;;
47894;SDS011;33653;52.302;8.134;2023-01-01T15:37:07;5.03;;;2.30;;
47894;SDS011;33653;52.302;8.134;2023-01-01T15:39:45;6.40;;;2.00;;
47894;SDS011;33653;52.302;8.134;2023-01-01T15:47:55;3.35;;;1.90;;
47894;SDS011;33653;52.302;8.134;2023-01-01T15:50:40;2.17;;;1.80;;
47894;SDS011;33653;52.302;8.134;2023-01-01T15:53:25;5.50;;;2.20;;
47894;SDS011;33653;52.302;8.134;2023-01-01T15:55:56;4.85;;;2.05;;
47894;SDS011;33653;52.302;8.134;2023-01-01T15:58:33;9.90;;;2.08;;
47894;SDS011;33653;52.302;8.134;2023-01-01T16:01:06;5.85;;;3.28;;
47894;SDS011;33653;52.302;8.134;2023-01-01T16:03:38;7.28;;;4.25;;
47894;SDS011;33653;52.302;8.134;2023-01-01T16:06:13;7.00;;;3.60;;
47894;SDS011;33653;52.302;8.134;2023-01-01T16:08:42;6.60;;;2.60;;
47894;SDS011;33653;52.302;8.134;2023-01-01T16:11:11;4.07;;;2.22;;
47894;SDS011;33653;52.302;8.134;2023-01-01T16:13:40;5.15;;;2.30;;
47894;SDS011;33653;52.302;8.134;2023-01-01T16:16:24;4.40;;;2.20;;
47894;SDS011;33653;52.302;8.134;2023-01-01T16:18:55;6.40;;;2.33;;
47894;SDS011;33653;52.302;8.134;2023-01-01T16:21:24;8.55;;;2.45;;
47894;SDS011;33653;52.302;8.134;2023-01-01T16:23:56;6.03;;;2.20;;
47894;SDS011;33653;52.302;8.134;2023-01-01T16:26:24;4.05;;;2.35;;
47894;SDS011;33653;52.302;8.134;2023-01-01T16:28:52;6.50;;;2.33;;
47894;SDS011;33653;52.302;8.134;2023-01-01T16:31:24;4.97;;;3.10;;
47894;SDS011;33653;52.302;8.134;2023-01-01T16:33:56;5.07;;;2.70;;
47894;SDS011;33653;52.302;8.134;2023-01-01T16:36:24;4.28;;;2.58;;
47894;SDS011;33653;52.302;8.134;2023-01-01T16:38:56;5.85;;;2.53;;
47894;SDS011;33653;52.302;8.134;2023-01-01T16:41:25;4.47;;;2.90;;
47894;SDS011;33653;52.302;8.134;2023-01-01T16:43:54;6.40;;;2.63;;
47894;SDS011;33653;52.302;8.134;2023-01-01T16:46:23;8.13;;;2.70;;
47894;SDS011;33653;52.302;8.134;2023-01-01T16:48:53;6.13;;;2.72;;
47894;SDS011;33653;52.302;8.134;2023-01-01T16:51:22;8.50;;;2.85;;
47894;SDS011;33653;52.302;8.134;2023-01-01T16:53:53;3.75;;;2.47;;
47894;SDS011;33653;52.302;8.134;2023-01-01T16:56:21;7.88;;;2.55;;
47894;SDS011;33653;52.302;8.134;2023-01-01T16:58:49;5.68;;;2.97;;
47894;SDS011;33653;52.302;8.134;2023-01-01T17:01:26;6.90;;;2.58;;
47894;SDS011;33653;52.302;8.134;2023-01-01T17:03:54;4.20;;;2.20;;
47894;SDS011;33653;52.302;8.134;2023-01-01T17:06:22;6.40;;;2.15;;
47894;SDS011;33653;52.302;8.134;2023-01-01T17:08:49;4.68;;;1.85;;
47894;SDS011;33653;52.302;8.134;2023-01-01T17:11:17;2.75;;;1.70;;
47894;SDS011;33653;52.302;8.134;2023-01-01T17:13:47;4.32;;;1.92;;
47894;SDS011;33653;52.302;8.134;2023-01-01T17:16:15;5.38;;;2.20;;
47894;SDS011;33653;52.302;8.134;2023-01-01T17:18:53;2.88;;;1.90;;
47894;SDS011;33653;52.302;8.134;2023-01-01T17:21:42;3.70;;;1.83;;
47894;SDS011;33653;52.302;8.134;2023-01-01T17:24:11;5.15;;;2.15;;
47894;SDS011;33653;52.302;8.134;2023-01-01T17:26:40;3.63;;;1.88;;
47894;SDS011;33653;52.302;8.134;2023-01-01T17:29:08;4.63;;;2.65;;
47894;SDS011;33653;52.302;8.134;2023-01-01T17:31:36;8.93;;;2.63;;
47894;SDS011;33653;52.302;8.134;2023-01-01T17:34:04;6.20;;;2.08;;
47894;SDS011;33653;52.302;8.134;2023-01-01T17:36:32;3.30;;;1.77;;
47894;SDS011;33653;52.302;8.134;2023-01-01T17:38:59;4.55;;;1.70;;
47894;SDS011;33653;52.302;8.134;2023-01-01T17:41:27;6.97;;;1.85;;
47894;SDS011;33653;52.302;8.134;2023-01-01T17:43:55;3.92;;;1.85;;
47894;SDS011;33653;52.302;8.134;2023-01-01T17:46:24;4.57;;;1.80;;
47894;SDS011;33653;52.302;8.134;2023-01-01T17:48:59;8.30;;;2.40;;
47894;SDS011;33653;52.302;8.134;2023-01-01T17:51:27;6.97;;;1.65;;
47894;SDS011;33653;52.302;8.134;2023-01-01T17:53:56;5.75;;;1.60;;
47894;SDS011;33653;52.302;8.134;2023-01-01T17:56:24;4.80;;;2.70;;
47894;SDS011;33653;52.302;8.134;2023-01-01T17:58:52;5.82;;;1.85;;
47894;SDS011;33653;52.302;8.134;2023-01-01T18:03:49;4.00;;;1.50;;
47894;SDS011;33653;52.302;8.134;2023-01-01T18:06:26;4.70;;;1.90;;
47894;SDS011;33653;52.302;8.134;2023-01-01T18:08:57;3.63;;;1.63;;
47894;SDS011;33653;52.302;8.134;2023-01-01T18:11:30;4.88;;;2.08;;
47894;SDS011;33653;52.302;8.134;2023-01-01T18:14:00;7.30;;;1.90;;
47894;SDS011;33653;52.302;8.134;2023-01-01T18:16:29;8.07;;;2.00;;
47894;SDS011;33653;52.302;8.134;2023-01-01T18:19:00;4.50;;;2.10;;